EST,Max TemperatureF,Mean TemperatureF,Min TemperatureF,Max Dew PointF,MeanDew PointF,Min DewpointF,Max Humidity, Mean Humidity, Min Humidity, Max Sea Level PressureIn, Mean Sea Level PressureIn, Min Sea Level PressureIn, Max VisibilityMiles, Mean VisibilityMiles, Min VisibilityMiles, Max Wind SpeedMPH, Mean Wind SpeedMPH, Max Gust SpeedMPH,PrecipitationIn, CloudCover, Events, WindDirDegrees
2012-1-1,64,50,37,55,42,27,89,71,35,30.16,30.10,30.01,10,9,5,21,6,26,0.00,4,,260
2012-1-2,42,35,25,28,13,7,66,41,25,30.23,30.15,30.06,10,10,10,23,14,33,0.00,1,,309
2012-1-3,33,26,19,13,8,3,62,46,35,30.43,30.34,30.23,10,10,10,20,13,31,0.00,0,,296
2012-1-4,46,34,21,21,12,5,66,43,20,30.38,30.29,30.19,10,10,10,13,6,18,0.00,0,,269
2012-1-5,57,46,35,31,27,22,76,52,28,30.20,30.14,30.12,10,10,10,13,8,,0.00,0,,264
2012-1-6,63,51,39,34,29,23,79,49,22,30.14,30.09,30.04,10,10,10,15,7,21,0.00,0,,258
2012-1-7,61,54,46,55,48,32,100,83,58,30.15,30.08,30.03,10,8,1,22,6,34,0.29,7,Rain-Thunderstorm,262
2012-1-8,55,52,48,55,52,48,100,98,93,30.23,30.18,30.13,10,3,0,6,2,,0.27,7,Fog-Rain,227
2012-1-9,64,58,53,57,56,53,100,97,78,30.20,30.14,30.08,10,4,0,10,2,,0.39,8,Fog-Rain,235
2012-1-10,60,56,53,58,56,53,100,97,88,30.10,30.03,29.89,10,4,0,10,5,,0.05,8,Fog-Rain,211
2012-1-11,62,55,48,57,53,43,100,93,62,29.90,29.70,29.52,10,5,0,22,9,33,0.35,8,Fog-Rain-Thunderstorm,151
2012-1-12,55,42,28,46,40,15,97,82,54,29.91,29.71,29.59,10,10,4,26,13,38,0.03,7,Rain,253
2012-1-13,33,29,25,19,17,14,69,61,50,30.18,30.03,29.91,10,10,10,23,17,34,0.00,4,,274
2012-1-14,48,37,26,22,18,14,72,49,30,30.28,30.19,30.11,10,10,10,15,10,21,0.00,1,,261
2012-1-15,48,40,33,26,22,18,66,48,32,30.47,30.37,30.16,10,10,10,13,7,20,0.00,0,,268
2012-1-16,50,42,34,33,28,22,67,57,46,30.54,30.44,30.34,10,10,8,7,3,,0.00,5,,91
2012-1-17,59,51,43,57,48,32,100,86,60,30.33,30.10,29.96,10,8,1,14,6,23,0.92,8,Rain-Thunderstorm,215
2012-1-18,55,44,32,54,31,20,94,68,34,30.11,30.05,29.97,10,10,8,14,10,22,0.02,1,Rain,289
2012-1-19,46,38,30,29,25,23,82,62,44,30.20,30.13,30.07,10,10,10,12,4,,0.00,1,,49
2012-1-20,48,44,39,45,41,29,100,91,62,30.13,30.07,30.02,10,5,2,13,4,23,0.46,8,Rain,79
2012-1-21,60,52,44,58,50,45,100,97,88,30.06,29.96,29.89,10,5,0,16,6,29,0.96,6,Fog-Rain-Thunderstorm,231
2012-1-22,51,45,39,52,44,39,100,99,93,30.23,30.18,30.07,6,2,0,17,10,26,0.06,8,Fog-Rain,79
2012-1-23,46,42,37,46,40,37,100,100,93,30.17,30.09,30.02,10,2,0,18,10,24,0.52,8,Fog-Rain-Thunderstorm,80
2012-1-24,61,52,43,48,41,36,100,78,41,30.24,30.16,30.07,10,6,0,9,7,,0.01,1,Fog,269
2012-1-25,60,50,41,43,39,32,76,61,51,30.30,30.21,30.15,10,10,10,12,6,,0.00,3,,82
2012-1-26,61,56,51,59,53,43,100,95,67,30.14,29.93,29.70,10,4,0,16,8,28,0.19,8,Fog-Rain,108
2012-1-27,60,50,39,55,45,35,100,79,52,30.05,29.85,29.68,10,10,8,17,11,24,0.07,4,Rain,270
2012-1-28,60,48,35,39,33,19,97,66,42,30.28,30.15,30.04,10,10,5,15,6,24,0.00,0,,291
2012-1-29,51,40,30,22,15,6,69,40,16,30.42,30.36,30.29,10,10,10,15,6,24,0.00,0,,280
2012-1-30,57,45,33,25,19,15,70,38,19,30.44,30.39,30.35,10,10,8,15,5,20,0.00,0,,255
2012-1-31,64,48,33,35,26,22,82,44,20,30.41,30.34,30.29,10,10,10,6,1,,0.00,1,,196